Chestnut Hill, Massachusetts
Current Conditions -  °F | °C
As of 3:54 AM on Thursday 18 Dec 2014 (Local Time) from KBOS Reporting Station
Overcast Overcast  
Wind Chill: 33°   Ceiling: 6000
Heat Index: 40°   Visibility: 10mi
Dew Point: 30°   Wind: 13mph
Humidity: 68%   Direction: 280°W
Pressure: 29.71"   Gusts: NA
Location:  42.33°N, 71.17°W
Report Text: KBOS 180854Z 28011KT 10SM BKN060 OVC075 04/M01 A2971 RMK AO2 SLP061 T00441011 58001
Loading
Personal Weather Stations






























Interactive Weather Map New forecast layout! Learn more

10-Day Weather Forecast

Advertisements
Track Severe Weather on mobile